Norwegian Star — C6FR3 — position and weather

sailwx.info

Track history (hours):
 
Tides and Currents Weather Stations Pressure Air Temp Water Temp Dewpoint Dewpoint Depression Visibility Wind Speed Wind Dir Waves Ship Positions

Norwegian Star

Operator: Norwegian Cruise Line

Last reported at 2018-Sep-23 22:40 UTC. Time now 2018-Sep-24 21:58 UTC.
Position N 44°06' E 014°01'.

Type: Passenger vessel. MMSI: 311082000.

Date/timePositionNaut miles runAvg speedWind from/ knotsBaromVisibWave heightAir tempDewpointWater temp
2018-Sep-23 22:40N 44°06' E 014°01'620.1
2018-Sep-23 22:21N 44°12' E 013°56'620.0
2018-Sep-23 22:03N 44°16' E 013°51'119.9
2018-Sep-23 22:00N 44°17' E 013°51'1019.7
2018-Sep-23 21:30N 44°26' E 013°43'919.5
2018-Sep-23 21:03N 44°33' E 013°36'119.6
2018-Sep-23 21:00N 44°34' E 013°35'1019.7
2018-Sep-23 20:30N 44°42' E 013°28'919.7
2018-Sep-23 20:03N 44°49' E 013°21'119.8
2018-Sep-23 20:00N 44°50' E 013°20'1019.7
2018-Sep-23 19:30N 44°58' E 013°12'919.6
2018-Sep-23 19:03N 45°05' E 013°04'119.8
2018-Sep-23 19:00N 45°05' E 013°03'1019.6
2018-Sep-23 18:30N 45°12' E 012°53'919.5
2018-Sep-23 18:03N 45°18' E 012°43'119.9
2018-Sep-23 18:00N 45°18' E 012°42'816.2
2018-Sep-23 17:30N 45°23' E 012°32'510.6
2018-Sep-23 17:03N 45°25' E 012°26'0 8.0
2018-Sep-23 17:00N 45°25' E 012°26'3 5.8
2018-Sep-23 16:30N 45°25' E 012°22'2 5.1
2018-Sep-23 16:03N 45°26' E 012°19'0 2.4
2018-Sep-23 16:00N 45°26' E 012°18'0 0.8
2018-Sep-23 15:26N 45°26' E 012°18'0 0.0
2018-Sep-23 15:02N 45°26' E 012°18'0 0.0
2018-Sep-23 14:56N 45°26' E 012°18'0 0.0
2018-Sep-23 14:02N 45°26' E 012°18'0 0.0
2018-Sep-23 13:29N 45°26' E 012°18'0 0.0
2018-Sep-23 13:02N 45°26' E 012°18'0 0.0
2018-Sep-23 12:56N 45°26' E 012°18'0 0.0
2018-Sep-23 12:29N 45°26' E 012°18'0 0.0
2018-Sep-23 11:59N 45°26' E 012°18'0 0.0
2018-Sep-23 11:29N 45°26' E 012°18'0 0.0
2018-Sep-23 10:56N 45°26' E 012°18'0 0.0
2018-Sep-23 10:29N 45°26' E 012°18'0 0.0
2018-Sep-23 09:56N 45°26' E 012°18'0 0.0
2018-Sep-23 09:26N 45°26' E 012°18'0 0.0
2018-Sep-23 09:02N 45°26' E 012°18'0 0.0
2018-Sep-23 08:56N 45°26' E 012°18'0 0.0
2018-Sep-23 08:26N 45°26' E 012°18'0 0.0
2018-Sep-23 08:02N 45°26' E 012°18'0 0.0
2018-Sep-23 07:56N 45°26' E 012°18'0 0.0
2018-Sep-23 07:29N 45°26' E 012°18'0 0.0
2018-Sep-23 07:02N 45°26' E 012°18'0 0.0
2018-Sep-23 06:59N 45°26' E 012°18'0 0.0
2018-Sep-23 06:29N 45°26' E 012°18'0 0.0
2018-Sep-23 06:02N 45°26' E 012°18'0 0.0
2018-Sep-23 05:59N 45°26' E 012°18'0 0.0
2018-Sep-23 05:29N 45°26' E 012°18'0 0.0
2018-Sep-23 05:03N 45°26' E 012°18'0 0.0
2018-Sep-23 05:00N 45°26' E 012°18'1 1.5
2018-Sep-23 04:30N 45°26' E 012°19'2 5.1
2018-Sep-23 04:03N 45°25' E 012°22'0 6.0
2018-Sep-23 04:00N 45°26' E 012°23'3 6.6
2018-Sep-23 03:30N 45°25' E 012°27'612.3
2018-Sep-23 03:03N 45°22' E 012°34'115.2
2018-Sep-23 03:00N 45°21' E 012°35'918.0
2018-Sep-23 02:30N 45°16' E 012°45'920.1
2018-Sep-23 02:03N 45°10' E 012°54'120.8
2018-Sep-23 02:00N 45°09' E 012°55'1020.1
2018-Sep-23 01:30N 45°02' E 013°06'920.4
2018-Sep-23 01:03N 44°59' E 013°18'120.4
2018-Sep-23 01:00N 44°59' E 013°19'1020.4
2018-Sep-23 00:30N 44°50' E 013°27'920.5
2018-Sep-23 00:03N 44°42' E 013°34'120.7
2018-Sep-23 00:00N 44°41' E 013°35'  
2018-Sep-20 15:06N 37°13' E 024°49'116.3
2018-Sep-20 15:03N 37°13' E 024°50'116.5
2018-Sep-20 15:00N 37°14' E 024°51'816.7
2018-Sep-20 14:30N 37°18' E 024°60'816.2
2018-Sep-20 14:00N 37°23' E 025°07'815.5
2018-Sep-20 13:30N 37°28' E 025°15'3 7.0
2018-Sep-20 13:02N 37°28' E 025°19'0 0.0
2018-Sep-20 12:59N 37°28' E 025°19'0 0.0
2018-Sep-20 12:29N 37°28' E 025°19'0 0.0
2018-Sep-20 12:02N 37°28' E 025°19'0 0.0
2018-Sep-20 11:59N 37°28' E 025°19'0 0.0
2018-Sep-20 11:29N 37°28' E 025°19'0 0.0
2018-Sep-20 10:59N 37°28' E 025°19'0 0.0
2018-Sep-20 10:29N 37°28' E 025°19'0 0.0
2018-Sep-20 09:59N 37°28' E 025°19'0 0.0
2018-Sep-20 09:29N 37°28' E 025°19'0 0.0
2018-Sep-20 09:02N 37°28' E 025°19'0 0.0
2018-Sep-20 08:59N 37°28' E 025°19'0 0.0
2018-Sep-20 08:29N 37°28' E 025°19'0 0.0
2018-Sep-20 08:02N 37°28' E 025°19'0 0.0
2018-Sep-20 07:59N 37°28' E 025°19'0 0.0
2018-Sep-20 07:26N 37°28' E 025°19'0 0.0
2018-Sep-20 07:02N 37°28' E 025°19'0 0.0
2018-Sep-20 06:59N 37°28' E 025°19'0 0.0
2018-Sep-20 06:29N 37°28' E 025°19'0 0.0
2018-Sep-20 06:02N 37°28' E 025°19'0 0.0
2018-Sep-20 05:59N 37°28' E 025°19'0 0.0
2018-Sep-20 05:29N 37°28' E 025°19'0 0.0
2018-Sep-20 05:02N 37°28' E 025°19'0 0.0
2018-Sep-20 04:59N 37°28' E 025°19'0 0.0
2018-Sep-20 04:29N 37°28' E 025°19'0 0.0
2018-Sep-20 04:02N 37°28' E 025°19'0 0.0
2018-Sep-20 03:59N 37°28' E 025°19'0 0.0
2018-Sep-20 03:29N 37°28' E 025°19'0 0.0
2018-Sep-20 03:03N 37°28' E 025°19'0 0.0
2018-Sep-20 03:00N 37°28' E 025°19'1 1.8
2018-Sep-20 02:30N 37°28' E 025°18'4 9.5
2018-Sep-20 02:03N 37°28' E 025°13'110.6
2018-Sep-20 02:00N 37°28' E 025°12'510.9
2018-Sep-20 01:30N 37°24' E 025°08'512.0
2018-Sep-20 01:03N 37°19' E 025°04'111.9
2018-Sep-20 01:00N 37°19' E 025°03'611.4
2018-Sep-20 00:30N 37°14' E 024°59'510.6
2018-Sep-20 00:03N 37°10' E 024°57'110.8
2018-Sep-20 00:00N 37°09' E 024°56'  
2018-Sep-16 21:16N 44°23' E 013°45'521.2
2018-Sep-16 21:03N 44°27' E 013°41'121.4
2018-Sep-16 21:00N 44°27' E 013°41'1021.3
2018-Sep-16 20:30N 44°36' E 013°33'1021.2
2018-Sep-16 20:03N 44°44' E 013°26'121.3
2018-Sep-16 20:00N 44°45' E 013°25'1121.3
2018-Sep-16 19:30N 44°54' E 013°17'921.0
2018-Sep-16 19:03N 45°01' E 013°08'120.9
2018-Sep-16 19:00N 45°02' E 013°07'1020.8
2018-Sep-16 18:30N 45°09' E 012°56'920.5
2018-Sep-16 18:03N 45°16' E 012°47'120.5
2018-Sep-16 18:00N 45°16' E 012°46'1019.7
2018-Sep-16 17:30N 45°22' E 012°34'613.1
2018-Sep-16 17:03N 45°25' E 012°27'0 8.6
2018-Sep-16 17:00N 45°25' E 012°26'3 6.0
2018-Sep-16 16:30N 45°25' E 012°22'2 5.3
2018-Sep-16 16:03N 45°26' E 012°19'0 4.4
2018-Sep-16 16:00N 45°26' E 012°18'0 0.9
2018-Sep-16 15:29N 45°26' E 012°18'0 0.0
2018-Sep-16 15:02N 45°26' E 012°18'0 0.0
2018-Sep-16 14:59N 45°26' E 012°18'0 0.0
2018-Sep-16 14:29N 45°26' E 012°18'0 0.0
2018-Sep-16 13:26N 45°26' E 012°18'0 0.0
2018-Sep-16 13:02N 45°26' E 012°18'0 0.0
2018-Sep-16 12:59N 45°26' E 012°18'0 0.0
2018-Sep-16 12:29N 45°26' E 012°18'0 0.0
2018-Sep-16 11:59N 45°26' E 012°18'0 0.0
2018-Sep-16 11:29N 45°26' E 012°18'0 0.0
2018-Sep-16 11:02N 45°26' E 012°18'0 0.0
2018-Sep-16 10:59N 45°26' E 012°18'0 0.0
2018-Sep-16 10:29N 45°26' E 012°18'0 0.0
2018-Sep-16 10:02N 45°26' E 012°18'0 0.0
2018-Sep-16 09:59N 45°26' E 012°18'0 0.0
2018-Sep-16 09:29N 45°26' E 012°18'0 0.0
2018-Sep-16 08:59N 45°26' E 012°18'0 0.0
2018-Sep-16 08:29N 45°26' E 012°18'0 0.0
2018-Sep-16 08:02N 45°26' E 012°18'0 0.0
2018-Sep-16 07:59N 45°26' E 012°18'0 0.0
2018-Sep-16 07:29N 45°26' E 012°18'0 0.0
2018-Sep-16 07:02N 45°26' E 012°18'0 0.0
2018-Sep-16 06:56N 45°26' E 012°18'0 0.0
2018-Sep-16 06:29N 45°26' E 012°18'0 0.0
2018-Sep-16 06:02N 45°26' E 012°18'0 0.0
2018-Sep-16 05:59N 45°26' E 012°18'0 0.0
2018-Sep-16 05:29N 45°26' E 012°18'0 0.0
2018-Sep-16 05:03N 45°26' E 012°18'0 0.0
2018-Sep-16 05:00N 45°26' E 012°18'1 1.8
2018-Sep-16 04:30N 45°26' E 012°19'2 5.0
2018-Sep-16 04:03N 45°26' E 012°23'0 6.0
2018-Sep-16 04:00N 45°26' E 012°23'3 6.9
2018-Sep-16 03:30N 45°25' E 012°27'511.6
2018-Sep-16 03:03N 45°22' E 012°34'115.8
2018-Sep-16 03:00N 45°21' E 012°35'816.5
2018-Sep-16 02:30N 45°17' E 012°44'818.1
2018-Sep-16 02:04N 45°11' E 012°52'119.9
2018-Sep-16 02:01N 45°10' E 012°53'1019.8
2018-Sep-16 01:30N 45°03' E 013°03'920.3
2018-Sep-16 01:04N 45°00' E 013°15'120.4
2018-Sep-16 01:01N 44°60' E 013°17'1020.8
2018-Sep-16 00:30N 44°52' E 013°25'921.0
2018-Sep-16 00:04N 44°44' E 013°32'120.8
2018-Sep-16 00:00N 44°43' E 013°33'1020.7
2018-Sep-15 23:30N 44°34' E 013°41'920.7
2018-Sep-15 23:03N 44°26' E 013°48'121.0
2018-Sep-15 23:00N 44°25' E 013°49'1221.1
2018-Sep-15 22:25N 44°15' E 013°59'1321.0
2018-Sep-15 21:47N 44°05' E 014°11'621.2
2018-Sep-15 21:30N 44°00' E 014°16'  
Track history (hours):
 
Tides and Currents Weather Stations Pressure Air Temp Water Temp Dewpoint Dewpoint Depression Visibility Wind Speed Wind Dir Waves Ship Positions

Norwegian Star

Operator: Norwegian Cruise Line

Last reported at 2018-Sep-23 22:40 UTC. Time now 2018-Sep-24 21:58 UTC.
Position N 44°06' E 014°01'.

Type: Passenger vessel. MMSI: 311082000.

Date/timePositionNaut miles runAvg speedWind from/ knotsBaromVisibWave heightAir tempDewpointWater temp
2018-Sep-23 22:40N 44°06' E 014°01'620.1
2018-Sep-23 22:21N 44°12' E 013°56'620.0
2018-Sep-23 22:03N 44°16' E 013°51'119.9
2018-Sep-23 22:00N 44°17' E 013°51'1019.7
2018-Sep-23 21:30N 44°26' E 013°43'919.5
2018-Sep-23 21:03N 44°33' E 013°36'119.6
2018-Sep-23 21:00N 44°34' E 013°35'1019.7
2018-Sep-23 20:30N 44°42' E 013°28'919.7
2018-Sep-23 20:03N 44°49' E 013°21'119.8
2018-Sep-23 20:00N 44°50' E 013°20'1019.7
2018-Sep-23 19:30N 44°58' E 013°12'919.6
2018-Sep-23 19:03N 45°05' E 013°04'119.8
2018-Sep-23 19:00N 45°05' E 013°03'1019.6
2018-Sep-23 18:30N 45°12' E 012°53'919.5
2018-Sep-23 18:03N 45°18' E 012°43'119.9
2018-Sep-23 18:00N 45°18' E 012°42'816.2
2018-Sep-23 17:30N 45°23' E 012°32'510.6
2018-Sep-23 17:03N 45°25' E 012°26'0 8.0
2018-Sep-23 17:00N 45°25' E 012°26'3 5.8
2018-Sep-23 16:30N 45°25' E 012°22'2 5.1
2018-Sep-23 16:03N 45°26' E 012°19'0 2.4
2018-Sep-23 16:00N 45°26' E 012°18'0 0.8
2018-Sep-23 15:26N 45°26' E 012°18'0 0.0
2018-Sep-23 15:02N 45°26' E 012°18'0 0.0
2018-Sep-23 14:56N 45°26' E 012°18'0 0.0
2018-Sep-23 14:02N 45°26' E 012°18'0 0.0
2018-Sep-23 13:29N 45°26' E 012°18'0 0.0
2018-Sep-23 13:02N 45°26' E 012°18'0 0.0
2018-Sep-23 12:56N 45°26' E 012°18'0 0.0
2018-Sep-23 12:29N 45°26' E 012°18'0 0.0
2018-Sep-23 11:59N 45°26' E 012°18'0 0.0
2018-Sep-23 11:29N 45°26' E 012°18'0 0.0
2018-Sep-23 10:56N 45°26' E 012°18'0 0.0
2018-Sep-23 10:29N 45°26' E 012°18'0 0.0
2018-Sep-23 09:56N 45°26' E 012°18'0 0.0
2018-Sep-23 09:26N 45°26' E 012°18'0 0.0
2018-Sep-23 09:02N 45°26' E 012°18'0 0.0
2018-Sep-23 08:56N 45°26' E 012°18'0 0.0
2018-Sep-23 08:26N 45°26' E 012°18'0 0.0
2018-Sep-23 08:02N 45°26' E 012°18'0 0.0
2018-Sep-23 07:56N 45°26' E 012°18'0 0.0
2018-Sep-23 07:29N 45°26' E 012°18'0 0.0
2018-Sep-23 07:02N 45°26' E 012°18'0 0.0
2018-Sep-23 06:59N 45°26' E 012°18'0 0.0
2018-Sep-23 06:29N 45°26' E 012°18'0 0.0
2018-Sep-23 06:02N 45°26' E 012°18'0 0.0
2018-Sep-23 05:59N 45°26' E 012°18'0 0.0
2018-Sep-23 05:29N 45°26' E 012°18'0 0.0
2018-Sep-23 05:03N 45°26' E 012°18'0 0.0
2018-Sep-23 05:00N 45°26' E 012°18'1 1.5
2018-Sep-23 04:30N 45°26' E 012°19'2 5.1
2018-Sep-23 04:03N 45°25' E 012°22'0 6.0
2018-Sep-23 04:00N 45°26' E 012°23'3 6.6
2018-Sep-23 03:30N 45°25' E 012°27'612.3
2018-Sep-23 03:03N 45°22' E 012°34'115.2
2018-Sep-23 03:00N 45°21' E 012°35'918.0
2018-Sep-23 02:30N 45°16' E 012°45'920.1
2018-Sep-23 02:03N 45°10' E 012°54'120.8
2018-Sep-23 02:00N 45°09' E 012°55'1020.1
2018-Sep-23 01:30N 45°02' E 013°06'920.4
2018-Sep-23 01:03N 44°59' E 013°18'120.4
2018-Sep-23 01:00N 44°59' E 013°19'1020.4
2018-Sep-23 00:30N 44°50' E 013°27'920.5
2018-Sep-23 00:03N 44°42' E 013°34'120.7
2018-Sep-23 00:00N 44°41' E 013°35'  
2018-Sep-20 15:06N 37°13' E 024°49'116.3
2018-Sep-20 15:03N 37°13' E 024°50'116.5
2018-Sep-20 15:00N 37°14' E 024°51'816.7
2018-Sep-20 14:30N 37°18' E 024°60'816.2
2018-Sep-20 14:00N 37°23' E 025°07'815.5
2018-Sep-20 13:30N 37°28' E 025°15'3 7.0
2018-Sep-20 13:02N 37°28' E 025°19'0 0.0
2018-Sep-20 12:59N 37°28' E 025°19'0 0.0
2018-Sep-20 12:29N 37°28' E 025°19'0 0.0
2018-Sep-20 12:02N 37°28' E 025°19'0 0.0
2018-Sep-20 11:59N 37°28' E 025°19'0 0.0
2018-Sep-20 11:29N 37°28' E 025°19'0 0.0
2018-Sep-20 10:59N 37°28' E 025°19'0 0.0
2018-Sep-20 10:29N 37°28' E 025°19'0 0.0
2018-Sep-20 09:59N 37°28' E 025°19'0 0.0
2018-Sep-20 09:29N 37°28' E 025°19'0 0.0
2018-Sep-20 09:02N 37°28' E 025°19'0 0.0
2018-Sep-20 08:59N 37°28' E 025°19'0 0.0
2018-Sep-20 08:29N 37°28' E 025°19'0 0.0
2018-Sep-20 08:02N 37°28' E 025°19'0 0.0
2018-Sep-20 07:59N 37°28' E 025°19'0 0.0
2018-Sep-20 07:26N 37°28' E 025°19'0 0.0
2018-Sep-20 07:02N 37°28' E 025°19'0 0.0
2018-Sep-20 06:59N 37°28' E 025°19'0 0.0
2018-Sep-20 06:29N 37°28' E 025°19'0 0.0
2018-Sep-20 06:02N 37°28' E 025°19'0 0.0
2018-Sep-20 05:59N 37°28' E 025°19'0 0.0
2018-Sep-20 05:29N 37°28' E 025°19'0 0.0
2018-Sep-20 05:02N 37°28' E 025°19'0 0.0
2018-Sep-20 04:59N 37°28' E 025°19'0 0.0
2018-Sep-20 04:29N 37°28' E 025°19'0 0.0
2018-Sep-20 04:02N 37°28' E 025°19'0 0.0
2018-Sep-20 03:59N 37°28' E 025°19'0 0.0
2018-Sep-20 03:29N 37°28' E 025°19'0 0.0
2018-Sep-20 03:03N 37°28' E 025°19'0 0.0
2018-Sep-20 03:00N 37°28' E 025°19'1 1.8
2018-Sep-20 02:30N 37°28' E 025°18'4 9.5
2018-Sep-20 02:03N 37°28' E 025°13'110.6
2018-Sep-20 02:00N 37°28' E 025°12'510.9
2018-Sep-20 01:30N 37°24' E 025°08'512.0
2018-Sep-20 01:03N 37°19' E 025°04'111.9
2018-Sep-20 01:00N 37°19' E 025°03'611.4
2018-Sep-20 00:30N 37°14' E 024°59'510.6
2018-Sep-20 00:03N 37°10' E 024°57'110.8
2018-Sep-20 00:00N 37°09' E 024°56'  
2018-Sep-16 21:16N 44°23' E 013°45'521.2
2018-Sep-16 21:03N 44°27' E 013°41'121.4
2018-Sep-16 21:00N 44°27' E 013°41'1021.3
2018-Sep-16 20:30N 44°36' E 013°33'1021.2
2018-Sep-16 20:03N 44°44' E 013°26'121.3
2018-Sep-16 20:00N 44°45' E 013°25'1121.3
2018-Sep-16 19:30N 44°54' E 013°17'921.0
2018-Sep-16 19:03N 45°01' E 013°08'120.9
2018-Sep-16 19:00N 45°02' E 013°07'1020.8
2018-Sep-16 18:30N 45°09' E 012°56'920.5
2018-Sep-16 18:03N 45°16' E 012°47'120.5
2018-Sep-16 18:00N 45°16' E 012°46'1019.7
2018-Sep-16 17:30N 45°22' E 012°34'613.1
2018-Sep-16 17:03N 45°25' E 012°27'0 8.6
2018-Sep-16 17:00N 45°25' E 012°26'3 6.0
2018-Sep-16 16:30N 45°25' E 012°22'2 5.3
2018-Sep-16 16:03N 45°26' E 012°19'0 4.4
2018-Sep-16 16:00N 45°26' E 012°18'0 0.9
2018-Sep-16 15:29N 45°26' E 012°18'0 0.0
2018-Sep-16 15:02N 45°26' E 012°18'0 0.0
2018-Sep-16 14:59N 45°26' E 012°18'0 0.0
2018-Sep-16 14:29N 45°26' E 012°18'0 0.0
2018-Sep-16 13:26N 45°26' E 012°18'0 0.0
2018-Sep-16 13:02N 45°26' E 012°18'0 0.0
2018-Sep-16 12:59N 45°26' E 012°18'0 0.0
2018-Sep-16 12:29N 45°26' E 012°18'0 0.0
2018-Sep-16 11:59N 45°26' E 012°18'0 0.0
2018-Sep-16 11:29N 45°26' E 012°18'0 0.0
2018-Sep-16 11:02N 45°26' E 012°18'0 0.0
2018-Sep-16 10:59N 45°26' E 012°18'0 0.0
2018-Sep-16 10:29N 45°26' E 012°18'0 0.0
2018-Sep-16 10:02N 45°26' E 012°18'0 0.0
2018-Sep-16 09:59N 45°26' E 012°18'0 0.0
2018-Sep-16 09:29N 45°26' E 012°18'0 0.0
2018-Sep-16 08:59N 45°26' E 012°18'0 0.0
2018-Sep-16 08:29N 45°26' E 012°18'0 0.0
2018-Sep-16 08:02N 45°26' E 012°18'0 0.0
2018-Sep-16 07:59N 45°26' E 012°18'0 0.0
2018-Sep-16 07:29N 45°26' E 012°18'0 0.0
2018-Sep-16 07:02N 45°26' E 012°18'0 0.0
2018-Sep-16 06:56N 45°26' E 012°18'0 0.0
2018-Sep-16 06:29N 45°26' E 012°18'0 0.0
2018-Sep-16 06:02N 45°26' E 012°18'0 0.0
2018-Sep-16 05:59N 45°26' E 012°18'0 0.0
2018-Sep-16 05:29N 45°26' E 012°18'0 0.0
2018-Sep-16 05:03N 45°26' E 012°18'0 0.0
2018-Sep-16 05:00N 45°26' E 012°18'1 1.8
2018-Sep-16 04:30N 45°26' E 012°19'2 5.0
2018-Sep-16 04:03N 45°26' E 012°23'0 6.0
2018-Sep-16 04:00N 45°26' E 012°23'3 6.9
2018-Sep-16 03:30N 45°25' E 012°27'511.6
2018-Sep-16 03:03N 45°22' E 012°34'115.8
2018-Sep-16 03:00N 45°21' E 012°35'816.5
2018-Sep-16 02:30N 45°17' E 012°44'818.1
2018-Sep-16 02:04N 45°11' E 012°52'119.9
2018-Sep-16 02:01N 45°10' E 012°53'1019.8
2018-Sep-16 01:30N 45°03' E 013°03'920.3
2018-Sep-16 01:04N 45°00' E 013°15'120.4
2018-Sep-16 01:01N 44°60' E 013°17'1020.8
2018-Sep-16 00:30N 44°52' E 013°25'921.0
2018-Sep-16 00:04N 44°44' E 013°32'120.8
2018-Sep-16 00:00N 44°43' E 013°33'1020.7
2018-Sep-15 23:30N 44°34' E 013°41'920.7
2018-Sep-15 23:03N 44°26' E 013°48'121.0
2018-Sep-15 23:00N 44°25' E 013°49'1221.1
2018-Sep-15 22:25N 44°15' E 013°59'1321.0
2018-Sep-15 21:47N 44°05' E 014°11'621.2
2018-Sep-15 21:30N 44°00' E 014°16'  

Dump ship's entire track history